createdAt,value
2023-01-19T00:01:30.866Z,3.58
2023-01-19T00:06:54.709Z,4.47
2023-01-19T00:12:19.954Z,3.67
2023-01-19T00:17:43.927Z,4.18
2023-01-19T00:23:08.372Z,4.53
2023-01-19T00:28:33.647Z,4.22
2023-01-19T00:33:57.380Z,5.50
2023-01-19T00:39:21.421Z,5.68
2023-01-19T00:44:46.788Z,5.22
2023-01-19T00:50:12.748Z,4.47
2023-01-19T00:55:36.611Z,3.88
2023-01-19T01:01:03.893Z,3.17
2023-01-19T01:06:27.876Z,3.10
2023-01-19T01:11:51.696Z,2.90
2023-01-19T01:17:17.123Z,2.72
2023-01-19T01:22:40.999Z,3.10
2023-01-19T01:28:07.053Z,2.65
2023-01-19T01:33:39.975Z,2.80
2023-01-19T01:39:05.846Z,1.75
2023-01-19T01:44:51.503Z,1.20
2023-01-19T01:50:19.082Z,1.42
2023-01-19T01:55:48.079Z,1.02
2023-01-19T02:01:29.619Z,1.58
2023-01-19T02:07:12.637Z,1.40
2023-01-19T02:12:53.943Z,1.00
2023-01-19T02:18:18.035Z,1.40
2023-01-19T02:23:46.112Z,1.30
2023-01-19T02:29:12.190Z,1.17
2023-01-19T02:34:36.431Z,1.55
2023-01-19T02:40:05.368Z,1.30
2023-01-19T02:45:29.386Z,1.20
2023-01-19T02:50:56.033Z,1.35
2023-01-19T02:56:55.092Z,2.25
2023-01-19T03:02:33.295Z,1.77
2023-01-19T03:08:06.137Z,1.00
2023-01-19T03:13:35.913Z,1.52
2023-01-19T03:19:06.561Z,1.10
2023-01-19T03:24:36.875Z,1.00
2023-01-19T03:30:06.133Z,1.15
2023-01-19T03:35:36.625Z,1.05
2023-01-19T03:41:04.418Z,0.93
2023-01-19T03:46:29.173Z,0.70
2023-01-19T03:51:56.528Z,0.80
2023-01-19T03:57:20.264Z,0.50
2023-01-19T04:02:44.123Z,0.90
2023-01-19T04:08:10.008Z,0.90
2023-01-19T04:13:33.821Z,1.02
2023-01-19T04:18:57.588Z,1.35
2023-01-19T04:24:22.818Z,0.88
2023-01-19T04:29:47.444Z,0.70
2023-01-19T04:35:11.528Z,0.80
2023-01-19T04:40:36.671Z,0.90
2023-01-19T04:46:00.640Z,0.80
2023-01-19T04:51:24.740Z,0.70
2023-01-19T04:56:50.185Z,0.50
2023-01-19T05:02:14.070Z,0.50
2023-01-19T05:07:38.053Z,0.80
2023-01-19T05:13:04.334Z,0.60
2023-01-19T05:18:28.114Z,0.68
2023-01-19T05:23:51.903Z,0.60
2023-01-19T05:29:17.162Z,0.90
2023-01-19T05:34:40.984Z,2.83
2023-01-19T05:40:05.421Z,1.45
2023-01-19T05:45:30.533Z,1.10
2023-01-19T05:50:58.884Z,0.68
2023-01-19T05:56:22.621Z,0.75
2023-01-19T06:01:47.851Z,1.10
2023-01-19T06:07:11.611Z,1.40
2023-01-19T06:12:35.370Z,1.23
2023-01-19T06:18:00.517Z,1.60
2023-01-19T06:23:24.587Z,1.50
2023-01-19T06:28:48.685Z,1.88
2023-01-19T06:34:13.892Z,2.58
2023-01-19T06:39:40.967Z,4.10
2023-01-19T06:45:05.008Z,5.95
2023-01-19T06:50:30.166Z,6.13
2023-01-19T06:55:53.931Z,4.32
2023-01-19T07:01:17.879Z,6.82
2023-01-19T07:06:43.095Z,8.27
2023-01-19T07:12:07.860Z,7.95
2023-01-19T07:17:33.596Z,7.22
2023-01-19T07:22:59.157Z,7.25
2023-01-19T07:28:23.162Z,7.82
2023-01-19T07:33:47.263Z,8.60
2023-01-19T07:39:12.434Z,8.85
2023-01-19T07:44:36.215Z,10.77
2023-01-19T07:49:59.984Z,10.68
2023-01-19T07:55:25.824Z,11.68
2023-01-19T08:00:50.500Z,8.48
2023-01-19T08:06:21.272Z,12.48
2023-01-19T08:11:46.697Z,12.70
2023-01-19T08:17:14.029Z,13.07
2023-01-19T08:22:37.844Z,14.07
2023-01-19T08:28:03.656Z,15.30
2023-01-19T08:33:27.538Z,16.10
2023-01-19T08:38:51.332Z,14.43
2023-01-19T08:44:16.824Z,14.77
2023-01-19T08:49:41.304Z,16.73
2023-01-19T08:55:05.818Z,18.00
2023-01-19T09:00:33.616Z,16.08
2023-01-19T09:05:57.463Z,18.50
2023-01-19T09:11:21.312Z,20.10
2023-01-19T09:16:46.429Z,50.17
2023-01-19T09:22:10.367Z,58.50
2023-01-19T09:27:34.890Z,25.65
2023-01-19T09:33:03.618Z,18.40
2023-01-19T09:38:31.484Z,18.63
2023-01-19T09:43:58.738Z,16.85
2023-01-19T09:49:32.583Z,12.52
2023-01-19T09:54:58.280Z,17.40
2023-01-19T10:00:24.322Z,18.10
2023-01-19T10:05:52.991Z,19.15
2023-01-19T10:11:34.529Z,20.92
2023-01-19T10:17:18.567Z,22.08
2023-01-19T10:22:44.981Z,22.08
2023-01-19T10:28:10.100Z,19.95
2023-01-19T10:33:34.619Z,19.85
2023-01-19T10:39:02.260Z,18.60
2023-01-19T10:44:28.353Z,19.80
2023-01-19T10:49:52.303Z,20.73
2023-01-19T10:55:26.739Z,22.83
2023-01-19T11:00:50.697Z,20.45
2023-01-19T11:06:22.843Z,21.00
2023-01-19T11:11:50.780Z,21.88
2023-01-19T11:17:24.320Z,20.23
2023-01-19T11:22:49.014Z,22.17
2023-01-19T11:28:20.004Z,22.17
2023-01-19T11:33:50.999Z,22.50
2023-01-19T11:39:23.791Z,28.37
2023-01-19T11:44:59.235Z,26.45
2023-01-19T11:50:24.855Z,26.42
2023-01-19T11:55:52.828Z,27.08
2023-01-19T12:01:24.759Z,24.40
2023-01-19T12:06:52.446Z,23.25
2023-01-19T12:12:26.261Z,25.83
2023-01-19T12:17:53.527Z,23.33
2023-01-19T12:23:26.215Z,20.55
2023-01-19T12:28:52.203Z,18.10
2023-01-19T12:34:41.619Z,22.50
2023-01-19T12:40:20.220Z,21.65
2023-01-19T12:45:45.966Z,17.73
2023-01-19T12:51:22.808Z,19.58
2023-01-19T12:56:46.799Z,16.05
2023-01-19T13:02:43.425Z,19.75
2023-01-19T13:08:25.838Z,19.90
2023-01-19T13:14:26.752Z,20.55
2023-01-19T13:19:56.113Z,21.30
2023-01-19T13:25:33.739Z,15.95
2023-01-19T13:31:02.650Z,19.77
2023-01-19T13:36:31.629Z,17.92
2023-01-19T13:42:02.153Z,18.27
2023-01-19T13:47:30.792Z,10.98
2023-01-19T13:52:56.649Z,16.15
2023-01-19T13:58:26.087Z,19.33
2023-01-19T14:03:52.359Z,16.83
2023-01-19T14:09:18.413Z,16.95
2023-01-19T14:14:45.045Z,15.32
2023-01-19T14:20:29.591Z,16.38
2023-01-19T14:25:53.419Z,16.08
2023-01-19T14:31:22.814Z,16.15
2023-01-19T14:36:46.611Z,13.98
2023-01-19T14:42:17.653Z,14.45
2023-01-19T14:47:46.100Z,16.43
2023-01-19T14:53:17.887Z,17.42
2023-01-19T14:58:41.679Z,15.55
2023-01-19T15:04:06.860Z,15.60
2023-01-19T15:09:30.713Z,17.00
2023-01-19T15:14:54.592Z,15.73
2023-01-19T15:20:21.810Z,14.90
2023-01-19T15:25:45.859Z,17.77
2023-01-19T15:31:15.188Z,15.02
2023-01-19T15:36:40.484Z,18.05
2023-01-19T15:42:05.938Z,17.98
2023-01-19T15:47:30.052Z,16.00
2023-01-19T15:52:55.280Z,15.70
2023-01-19T15:58:20.635Z,15.93
2023-01-19T16:03:44.921Z,19.70
2023-01-19T16:09:12.242Z,18.60
2023-01-19T16:14:35.965Z,19.15
2023-01-19T16:19:59.840Z,17.10
2023-01-19T16:25:25.002Z,20.15
2023-01-19T16:30:49.568Z,18.52
2023-01-19T16:36:25.321Z,20.25
2023-01-19T16:41:50.474Z,19.23
2023-01-19T16:47:14.532Z,19.77
2023-01-19T16:52:38.423Z,33.63
2023-01-19T16:58:03.598Z,17.25
2023-01-19T17:03:28.150Z,17.88
2023-01-19T17:08:53.107Z,13.77
2023-01-19T17:14:20.545Z,16.85
2023-01-19T17:19:45.212Z,17.00
2023-01-19T17:25:09.650Z,13.43
2023-01-19T17:30:34.927Z,11.38
2023-01-19T17:36:03.931Z,14.85
2023-01-19T17:41:29.983Z,14.63
2023-01-19T17:46:56.431Z,15.82
2023-01-19T17:52:20.911Z,17.52
2023-01-19T17:57:44.707Z,16.42
2023-01-19T18:03:09.907Z,17.67
2023-01-19T18:08:34.743Z,15.65
2023-01-19T18:13:58.592Z,16.48
2023-01-19T18:19:23.825Z,16.70
2023-01-19T18:24:49.075Z,15.18
2023-01-19T18:30:13.727Z,14.07
2023-01-19T18:35:41.031Z,18.52
2023-01-19T18:41:06.623Z,16.75
2023-01-19T18:46:30.415Z,17.58
2023-01-19T18:51:56.121Z,16.88
2023-01-19T18:57:20.316Z,15.38
2023-01-19T19:02:44.004Z,17.58
2023-01-19T19:08:09.663Z,14.43
2023-01-19T19:13:33.490Z,16.40
2023-01-19T19:18:57.298Z,13.88
2023-01-19T19:24:22.499Z,14.55
2023-01-19T19:29:48.780Z,15.00
2023-01-19T19:35:12.678Z,13.73
2023-01-19T19:40:37.855Z,12.82
2023-01-19T19:46:03.320Z,14.43
2023-01-19T19:51:29.110Z,14.38
2023-01-19T19:56:54.575Z,12.20
2023-01-19T20:02:18.341Z,13.82
2023-01-19T20:07:47.138Z,9.57
2023-01-19T20:13:12.359Z,12.50
2023-01-19T20:18:38.017Z,8.68
2023-01-19T20:24:03.947Z,10.60
2023-01-19T20:29:29.138Z,14.27
2023-01-19T20:34:52.987Z,13.27
2023-01-19T20:40:17.219Z,14.38
2023-01-19T20:45:42.448Z,13.95
2023-01-19T20:51:08.282Z,10.23
2023-01-19T20:56:32.182Z,12.60
2023-01-19T21:01:57.453Z,12.85
2023-01-19T21:07:21.345Z,9.70
2023-01-19T21:12:45.246Z,15.32
2023-01-19T21:18:10.397Z,11.18
2023-01-19T21:23:34.161Z,15.05
2023-01-19T21:28:58.550Z,12.48
2023-01-19T21:34:23.784Z,16.58
2023-01-19T21:39:49.940Z,16.23
2023-01-19T21:45:14.071Z,10.68
2023-01-19T21:50:39.869Z,11.88
2023-01-19T21:56:03.752Z,15.43
2023-01-19T22:01:27.687Z,16.15
2023-01-19T22:06:53.024Z,16.33
2023-01-19T22:12:16.829Z,15.07
2023-01-19T22:17:40.627Z,14.07
2023-01-19T22:23:05.828Z,14.95
2023-01-19T22:28:29.632Z,15.48
2023-01-19T22:33:53.785Z,14.43
2023-01-19T22:39:19.006Z,16.35
2023-01-19T22:44:43.093Z,14.60
2023-01-19T22:50:08.109Z,14.52
2023-01-19T22:55:33.342Z,16.50
2023-01-19T23:00:57.239Z,15.38
2023-01-19T23:06:23.112Z,15.25
2023-01-19T23:11:50.766Z,12.43
2023-01-19T23:17:14.740Z,15.02
2023-01-19T23:22:38.876Z,13.18
2023-01-19T23:28:04.062Z,13.48
2023-01-19T23:33:28.049Z,14.23
2023-01-19T23:38:53.284Z,12.23
2023-01-19T23:44:19.288Z,14.05
2023-01-19T23:49:43.090Z,14.98
2023-01-19T23:55:08.119Z,14.32
